Time;durP1;ratioP1;P1;durP2;ratioP2;P2;SDS_P1;SDS_P2;PMS_P1;PMS_P2;Temp;Humidity;BMP_temperature;BMP_pressure;BME280_temperature;BME280_humidity;BME280_pressure;Samples;Min_cycle;Max_cycle;Signal;HPM_P1;HPM_P2
2021/11/15 00:02:23;;;;;;;129.63;52.30;;;8.10;99.90;;;;;;5075591;28;20028;-73
2021/11/15 00:04:50;;;;;;;139.68;55.92;;;8.10;99.90;;;;;;5076040;28;20047;-73
2021/11/15 00:07:16;;;;;;;149.43;58.90;;;8.00;99.90;;;;;;5076369;28;20032;-73
2021/11/15 00:09:42;;;;;;;142.30;57.53;;;8.10;99.90;;;;;;5076207;28;20086;-73
2021/11/15 00:12:09;;;;;;;122.85;52.65;;;8.00;99.90;;;;;;5076025;28;20070;-73
2021/11/15 00:14:34;;;;;;;130.70;54.20;;;8.10;99.90;;;;;;5075268;28;20036;-73
2021/11/15 00:17:00;;;;;;;129.98;55.30;;;8.10;99.90;;;;;;5075804;28;20055;-73
2021/11/15 00:19:26;;;;;;;136.82;54.92;;;8.00;99.90;;;;;;5075766;28;20071;-74
2021/11/15 00:21:51;;;;;;;138.38;55.90;;;8.00;99.90;;;;;;5074497;28;20404;-73
2021/11/15 00:24:17;;;;;;;135.00;55.78;;;8.00;99.90;;;;;;5075791;28;20151;-73
2021/11/15 00:26:43;;;;;;;139.18;55.25;;;8.10;99.90;;;;;;5057435;28;20048;-74
2021/11/15 00:29:09;;;;;;;131.00;53.47;;;8.00;99.90;;;;;;5075645;28;20480;-73
2021/11/15 00:31:34;;;;;;;146.50;57.20;;;8.00;99.90;;;;;;5076226;28;20376;-74
2021/11/15 00:34:00;;;;;;;149.32;60.28;;;8.00;99.90;;;;;;5075137;28;20016;-73
2021/11/15 00:36:26;;;;;;;136.88;57.60;;;8.00;99.90;;;;;;5057446;28;20041;-73
2021/11/15 00:38:51;;;;;;;142.70;57.33;;;8.00;99.90;;;;;;5057576;28;20427;-73
2021/11/15 00:41:17;;;;;;;145.45;60.72;;;8.00;99.90;;;;;;5057430;28;20541;-73
2021/11/15 00:43:43;;;;;;;158.95;63.47;;;8.00;99.90;;;;;;5074940;28;20476;-73
2021/11/15 00:46:09;;;;;;;144.52;58.75;;;8.00;99.90;;;;;;5075290;28;20531;-73
2021/11/15 00:48:34;;;;;;;145.55;56.70;;;8.00;99.90;;;;;;5075028;28;20562;-73
2021/11/15 00:51:00;;;;;;;134.00;52.15;;;8.00;99.90;;;;;;5057238;28;20025;-74
2021/11/15 00:53:27;;;;;;;121.55;52.17;;;8.00;99.90;;;;;;5056769;28;20028;-75
2021/11/15 00:55:53;;;;;;;119.95;49.50;;;8.00;99.90;;;;;;5075174;28;20439;-74
2021/11/15 00:58:18;;;;;;;126.25;53.00;;;8.00;99.90;;;;;;5075160;28;20059;-74
2021/11/15 01:00:45;;;;;;;129.48;54.92;;;8.00;99.90;;;;;;5075087;28;20024;-74
2021/11/15 01:03:12;;;;;;;155.88;58.65;;;8.00;99.90;;;;;;5075055;28;20020;-74
2021/11/15 01:05:39;;;;;;;123.88;52.13;;;8.00;99.90;;;;;;5074956;28;20464;-75
2021/11/15 01:08:07;;;;;;;139.00;56.53;;;8.00;99.90;;;;;;5074444;28;20029;-74
2021/11/15 01:10:33;;;;;;;135.48;54.75;;;8.00;99.90;;;;;;5057013;28;20024;-74
2021/11/15 01:13:00;;;;;;;141.43;56.22;;;8.00;99.90;;;;;;5074897;28;20129;-75
2021/11/15 01:15:29;;;;;;;134.85;56.08;;;8.00;99.90;;;;;;5074757;28;20032;-75
2021/11/15 01:17:55;;;;;;;134.63;55.55;;;8.00;99.90;;;;;;5074395;28;20103;-75
2021/11/15 01:20:25;;;;;;;146.43;56.05;;;8.00;99.90;;;;;;5075203;28;20035;-74
2021/11/15 01:22:50;;;;;;;138.65;55.72;;;8.00;99.90;;;;;;5074664;28;20159;-74
2021/11/15 01:25:16;;;;;;;128.77;52.05;;;8.00;99.90;;;;;;5074784;28;20049;-75
2021/11/15 01:27:42;;;;;;;120.32;50.20;;;8.00;99.90;;;;;;5074056;28;20480;-75
2021/11/15 01:30:10;;;;;;;128.70;53.00;;;8.00;99.90;;;;;;5074789;28;20036;-75
2021/11/15 01:32:38;;;;;;;120.90;51.05;;;8.00;99.90;;;;;;5073957;28;20036;-74
2021/11/15 01:35:05;;;;;;;117.75;50.67;;;8.00;99.90;;;;;;5074657;28;20032;-74
2021/11/15 01:37:31;;;;;;;126.38;49.88;;;8.00;99.90;;;;;;5142903;22;20138;-66
2021/11/15 01:39:56;;;;;;;126.78;50.92;;;8.00;99.90;;;;;;5114617;28;20107;-67
2021/11/15 01:42:23;;;;;;;119.97;51.63;;;8.00;99.90;;;;;;5115036;28;20367;-67
2021/11/15 01:44:48;;;;;;;116.15;50.40;;;8.00;99.90;;;;;;5114948;28;20450;-66
2021/11/15 01:47:14;;;;;;;117.25;49.20;;;8.00;99.90;;;;;;5115145;28;20482;-66
2021/11/15 01:49:41;;;;;;;117.28;47.80;;;8.00;99.90;;;;;;5114841;28;20058;-67
2021/11/15 01:52:07;;;;;;;111.47;49.67;;;8.00;99.90;;;;;;5114311;28;20059;-66
2021/11/15 01:54:34;;;;;;;121.32;50.47;;;8.00;99.90;;;;;;5114815;28;20073;-66
2021/11/15 01:57:00;;;;;;;109.00;47.30;;;7.90;99.90;;;;;;5114632;28;20020;-67
2021/11/15 01:59:25;;;;;;;106.93;48.03;;;7.90;99.90;;;;;;5114481;28;20019;-66
2021/11/15 02:01:51;;;;;;;109.65;48.95;;;8.00;99.90;;;;;;5114042;28;20031;-67
2021/11/15 02:04:17;;;;;;;109.97;49.50;;;8.00;99.90;;;;;;5114452;28;20024;-66
2021/11/15 02:06:42;;;;;;;100.55;45.15;;;8.00;99.90;;;;;;5114336;28;20487;-67
2021/11/15 02:09:08;;;;;;;108.35;46.50;;;7.90;99.90;;;;;;5114399;28;20157;-66
2021/11/15 02:11:34;;;;;;;102.57;44.92;;;7.90;99.90;;;;;;5114365;28;20024;-66
2021/11/15 02:14:01;;;;;;;113.30;49.15;;;7.90;99.90;;;;;;5114303;28;20079;-66
2021/11/15 02:16:28;;;;;;;112.68;47.92;;;8.00;99.90;;;;;;5113654;28;20051;-66
2021/11/15 02:18:53;;;;;;;121.70;50.13;;;8.00;99.90;;;;;;5096020;28;20016;-67
2021/11/15 02:21:19;;;;;;;122.20;51.10;;;7.90;99.90;;;;;;5114410;28;20022;-66
2021/11/15 02:23:46;;;;;;;118.97;47.70;;;7.90;99.90;;;;;;5114381;28;20051;-67
2021/11/15 02:26:15;;;;;;;111.70;48.05;;;7.90;99.90;;;;;;5114106;28;20023;-66
2021/11/15 02:28:44;;;;;;;121.47;48.88;;;7.90;99.90;;;;;;5113603;28;20031;-66
2021/11/15 02:31:12;;;;;;;106.82;44.25;;;7.90;99.90;;;;;;5114011;28;20027;-66
2021/11/15 02:33:38;;;;;;;100.93;46.95;;;7.90;99.90;;;;;;5114278;28;20042;-66
2021/11/15 02:36:05;;;;;;;108.20;49.28;;;7.90;99.90;;;;;;5113972;28;20031;-67
2021/11/15 02:38:30;;;;;;;112.85;47.60;;;7.90;99.90;;;;;;5113931;28;20096;-66
2021/11/15 02:40:57;;;;;;;116.28;49.78;;;7.90;99.90;;;;;;5095589;28;20027;-66
2021/11/15 02:43:23;;;;;;;114.82;50.10;;;7.90;99.90;;;;;;5094935;28;20509;-66
2021/11/15 02:45:49;;;;;;;111.00;46.58;;;7.90;99.90;;;;;;5095010;28;20027;-66
2021/11/15 02:48:21;;;;;;;109.75;48.42;;;7.90;99.90;;;;;;5095671;28;20026;-67
2021/11/15 02:50:48;;;;;;;108.78;45.92;;;7.90;99.90;;;;;;5095631;28;20068;-66
2021/11/15 02:53:14;;;;;;;109.03;45.67;;;7.90;99.90;;;;;;5113269;28;20020;-67
2021/11/15 02:55:43;;;;;;;104.28;47.78;;;7.90;99.90;;;;;;5095314;28;20027;-67
2021/11/15 02:58:10;;;;;;;97.85;42.78;;;7.90;99.90;;;;;;5095569;28;20023;-67
2021/11/15 03:00:43;;;;;;;91.28;43.42;;;8.00;99.90;;;;;;5113641;28;20055;-67
2021/11/15 03:03:10;;;;;;;109.33;43.50;;;7.90;99.90;;;;;;5095420;28;20026;-66
2021/11/15 03:05:40;;;;;;;98.70;42.50;;;7.90;99.90;;;;;;5094937;28;20395;-66
2021/11/15 03:08:07;;;;;;;104.03;44.42;;;7.90;99.90;;;;;;5113684;28;20030;-67
2021/11/15 03:10:34;;;;;;;107.25;46.78;;;7.90;99.90;;;;;;5113561;28;20031;-67
2021/11/15 03:13:01;;;;;;;108.45;45.35;;;7.90;99.90;;;;;;5113435;28;20027;-67
2021/11/15 03:15:39;;;;;;;105.03;43.53;;;7.90;99.90;;;;;;5113472;28;20027;-67
2021/11/15 03:18:14;;;;;;;98.63;44.22;;;7.90;99.90;;;;;;5113346;28;20020;-66
2021/11/15 03:20:42;;;;;;;97.45;44.50;;;7.90;99.90;;;;;;5113405;28;20020;-67
2021/11/15 03:23:18;;;;;;;103.03;45.47;;;7.90;99.90;;;;;;5095135;28;20115;-67
2021/11/15 03:25:45;;;;;;;101.40;44.92;;;7.90;99.90;;;;;;5112739;28;20070;-66
2021/11/15 03:28:13;;;;;;;102.53;42.67;;;7.90;99.90;;;;;;5113195;28;20036;-67
2021/11/15 03:30:40;;;;;;;99.18;44.80;;;7.80;99.90;;;;;;5113389;28;20102;-67
2021/11/15 03:33:07;;;;;;;91.50;41.90;;;7.80;99.90;;;;;;5113589;28;20111;-66
2021/11/15 03:35:32;;;;;;;92.03;41.28;;;7.90;99.90;;;;;;5112765;28;20027;-67
2021/11/15 03:37:58;;;;;;;98.35;41.17;;;7.80;99.90;;;;;;5113170;28;20093;-66
2021/11/15 03:40:26;;;;;;;99.03;44.28;;;7.80;99.90;;;;;;5113262;28;20102;-67
2021/11/15 03:42:59;;;;;;;101.78;46.40;;;7.80;99.90;;;;;;5113325;28;20016;-67
2021/11/15 03:45:27;;;;;;;96.03;43.17;;;7.80;99.90;;;;;;5112766;28;20020;-67
2021/11/15 03:47:54;;;;;;;111.22;48.15;;;7.80;99.90;;;;;;5094887;28;20027;-67
2021/11/15 03:50:20;;;;;;;106.30;43.63;;;7.80;99.90;;;;;;5094923;28;20043;-67
2021/11/15 03:52:47;;;;;;;87.22;41.85;;;7.80;99.90;;;;;;5094828;28;20024;-67
2021/11/15 03:55:16;;;;;;;94.82;42.38;;;7.80;99.90;;;;;;5113628;28;20023;-66
2021/11/15 03:57:42;;;;;;;100.43;42.83;;;7.80;99.90;;;;;;5116921;28;20023;-67
2021/11/15 04:00:10;;;;;;;90.18;40.78;;;7.80;99.90;;;;;;5116346;28;20024;-66
2021/11/15 04:02:37;;;;;;;104.25;43.22;;;7.80;99.90;;;;;;5116872;28;20020;-66
2021/11/15 04:05:06;;;;;;;103.60;44.75;;;7.70;99.90;;;;;;5117057;28;20100;-67
2021/11/15 04:07:38;;;;;;;99.05;43.38;;;7.80;99.90;;;;;;5116773;28;20066;-66
2021/11/15 04:10:07;;;;;;;98.32;41.85;;;7.70;99.90;;;;;;5117340;28;20035;-67
2021/11/15 04:12:33;;;;;;;90.97;40.38;;;7.70;99.90;;;;;;5116095;28;20099;-66
2021/11/15 04:14:58;;;;;;;90.10;40.08;;;7.70;99.90;;;;;;5116310;28;20058;-66
2021/11/15 04:17:24;;;;;;;85.35;39.83;;;7.70;99.90;;;;;;5116495;28;20020;-66
2021/11/15 04:19:53;;;;;;;77.47;37.28;;;7.70;99.90;;;;;;5115938;28;20173;-66
2021/11/15 04:22:19;;;;;;;80.03;38.08;;;7.70;99.90;;;;;;5116757;28;20024;-66
2021/11/15 04:24:45;;;;;;;82.30;38.60;;;7.70;99.90;;;;;;5116457;28;20098;-67
2021/11/15 04:27:11;;;;;;;82.13;37.38;;;7.70;99.90;;;;;;5116353;28;20522;-66
2021/11/15 04:29:37;;;;;;;76.00;36.35;;;7.70;99.90;;;;;;5116627;28;20032;-66
2021/11/15 04:32:07;;;;;;;85.68;37.53;;;7.80;99.90;;;;;;5115814;28;20038;-66
2021/11/15 04:34:34;;;;;;;72.18;33.80;;;7.80;99.90;;;;;;5116172;28;20031;-67
2021/11/15 04:37:00;;;;;;;73.50;36.38;;;7.80;99.90;;;;;;5116169;28;20040;-67
2021/11/15 04:39:26;;;;;;;75.53;36.10;;;7.70;99.90;;;;;;5116389;28;20379;-67
2021/11/15 04:41:51;;;;;;;85.15;37.40;;;7.70;99.90;;;;;;5116372;28;20072;-67
2021/11/15 04:44:17;;;;;;;78.55;35.97;;;7.70;99.90;;;;;;5116252;28;20029;-68
2021/11/15 04:46:43;;;;;;;77.75;37.95;;;7.70;99.90;;;;;;5115515;28;20019;-69
2021/11/15 04:49:09;;;;;;;78.10;39.15;;;7.70;99.90;;;;;;5097853;28;20023;-69
2021/11/15 04:51:35;;;;;;;74.30;37.53;;;7.70;99.90;;;;;;5097767;28;20024;-69
2021/11/15 04:54:01;;;;;;;75.93;37.72;;;7.60;99.90;;;;;;5116552;28;20023;-68
2021/11/15 04:56:27;;;;;;;75.68;38.05;;;7.60;99.90;;;;;;5115359;28;20505;-68
2021/11/15 04:58:53;;;;;;;75.57;36.83;;;7.60;99.90;;;;;;5115882;28;20032;-69
2021/11/15 05:01:19;;;;;;;74.55;36.13;;;7.60;99.90;;;;;;5115778;28;20020;-69
2021/11/15 05:03:45;;;;;;;69.35;36.38;;;7.60;99.90;;;;;;5097434;28;20023;-69
2021/11/15 05:06:11;;;;;;;73.53;36.60;;;7.60;99.90;;;;;;5096822;28;20035;-69
2021/11/15 05:08:37;;;;;;;74.82;36.78;;;7.50;99.90;;;;;;5096640;28;20027;-69
2021/11/15 05:11:03;;;;;;;74.13;38.20;;;7.60;99.90;;;;;;5115644;28;20095;-68
2021/11/15 05:13:29;;;;;;;79.30;37.20;;;7.60;99.90;;;;;;5097372;28;20093;-67
2021/11/15 05:15:55;;;;;;;71.32;34.13;;;7.60;99.90;;;;;;5097187;28;20031;-67
2021/11/15 05:18:21;;;;;;;76.28;37.42;;;7.60;99.90;;;;;;5114876;28;20023;-66
2021/11/15 05:20:48;;;;;;;71.28;36.20;;;7.60;99.90;;;;;;5115276;28;20035;-66
2021/11/15 05:23:14;;;;;;;71.35;36.08;;;7.50;99.90;;;;;;5097202;28;20027;-67
2021/11/15 05:25:41;;;;;;;75.22;34.88;;;7.50;99.90;;;;;;5097020;28;20711;-66
2021/11/15 05:28:07;;;;;;;74.78;30.90;;;7.50;99.90;;;;;;5097037;28;20020;-67
2021/11/15 05:30:32;;;;;;;70.28;32.47;;;7.40;99.90;;;;;;5096963;28;20027;-66
2021/11/15 05:32:58;;;;;;;57.72;29.80;;;7.40;99.90;;;;;;5114726;28;20027;-67
2021/11/15 05:35:25;;;;;;;60.92;30.10;;;7.40;99.90;;;;;;5096903;28;20051;-66
2021/11/15 05:37:52;;;;;;;57.90;30.23;;;7.40;99.90;;;;;;5114936;28;20114;-68
2021/11/15 05:40:19;;;;;;;61.42;31.42;;;7.40;99.90;;;;;;5115200;28;20023;-69
2021/11/15 05:42:45;;;;;;;64.00;32.20;;;7.40;99.90;;;;;;5096705;28;20024;-69
2021/11/15 05:45:11;;;;;;;59.70;30.90;;;7.40;99.90;;;;;;5096285;28;20074;-69
2021/11/15 05:47:37;;;;;;;59.70;29.05;;;7.40;99.90;;;;;;5114762;28;20059;-67
2021/11/15 05:50:06;;;;;;;55.67;27.83;;;7.40;99.90;;;;;;5115049;28;20031;-67
2021/11/15 05:52:33;;;;;;;59.97;31.00;;;7.40;99.90;;;;;;5114707;28;20478;-67
2021/11/15 05:54:59;;;;;;;53.13;28.98;;;7.40;99.90;;;;;;5114202;28;20039;-66
2021/11/15 05:57:24;;;;;;;56.92;27.17;;;7.40;99.90;;;;;;5114520;28;20024;-67
2021/11/15 05:59:50;;;;;;;52.53;27.23;;;7.40;99.90;;;;;;5114539;28;20055;-67
2021/11/15 06:02:16;;;;;;;61.38;29.88;;;7.40;99.90;;;;;;5114593;28;20035;-67
2021/11/15 06:04:41;;;;;;;52.83;27.38;;;7.40;99.90;;;;;;5114216;28;20424;-66
2021/11/15 06:07:07;;;;;;;56.30;27.55;;;7.40;99.90;;;;;;5114347;28;20035;-66
2021/11/15 06:09:32;;;;;;;59.17;29.02;;;7.40;99.90;;;;;;5114739;28;20041;-67
2021/11/15 06:11:58;;;;;;;62.67;28.83;;;7.40;99.90;;;;;;5114528;28;20398;-66
2021/11/15 06:14:24;;;;;;;54.90;28.73;;;7.40;99.90;;;;;;5114896;28;20024;-67
2021/11/15 06:16:49;;;;;;;59.75;30.13;;;7.40;99.90;;;;;;5113807;28;20028;-66
2021/11/15 06:19:16;;;;;;;58.17;29.15;;;7.40;99.90;;;;;;5095946;28;20023;-66
2021/11/15 06:21:41;;;;;;;56.70;29.50;;;7.40;99.90;;;;;;5114420;28;20030;-66
2021/11/15 06:24:07;;;;;;;67.32;30.63;;;7.40;99.90;;;;;;5114380;28;20019;-67
2021/11/15 06:26:33;;;;;;;55.15;27.40;;;7.40;99.90;;;;;;5114097;28;20051;-67
2021/11/15 06:28:58;;;;;;;52.80;28.88;;;7.40;99.90;;;;;;5078489;28;20111;-67
2021/11/15 06:31:24;;;;;;;67.75;28.90;;;7.40;99.90;;;;;;5114375;28;20020;-67
2021/11/15 06:33:51;;;;;;;65.00;29.75;;;7.40;99.90;;;;;;5114013;28;20027;-67
2021/11/15 06:36:19;;;;;;;56.10;29.80;;;7.40;99.90;;;;;;5095621;28;20042;-67
2021/11/15 06:38:44;;;;;;;59.42;29.27;;;7.40;99.90;;;;;;5114701;28;20417;-66
2021/11/15 06:41:10;;;;;;;62.55;30.33;;;7.30;99.90;;;;;;5095060;28;20028;-67
2021/11/15 06:43:36;;;;;;;58.80;30.13;;;7.30;99.90;;;;;;5114132;28;20024;-66
2021/11/15 06:46:02;;;;;;;69.95;32.80;;;7.40;99.90;;;;;;5113771;28;20076;-67
2021/11/15 06:48:30;;;;;;;59.50;30.70;;;7.30;99.90;;;;;;5113272;28;20027;-67
2021/11/15 06:50:56;;;;;;;58.72;29.48;;;7.30;99.90;;;;;;5095522;28;20498;-69
2021/11/15 06:53:21;;;;;;;65.78;30.58;;;7.30;99.90;;;;;;5113801;28;20027;-69
2021/11/15 06:55:47;;;;;;;57.40;30.65;;;7.30;99.90;;;;;;5113768;28;20026;-68
2021/11/15 06:58:13;;;;;;;59.25;30.73;;;7.30;99.90;;;;;;5095524;28;20027;-68
2021/11/15 07:00:39;;;;;;;63.83;30.65;;;7.30;99.90;;;;;;5112699;28;20069;-68
2021/11/15 07:03:05;;;;;;;62.45;29.88;;;7.20;99.90;;;;;;5113709;28;20510;-69
2021/11/15 07:05:31;;;;;;;58.42;31.20;;;7.30;99.90;;;;;;5113748;28;20113;-69
2021/11/15 07:07:57;;;;;;;58.28;29.65;;;7.30;99.90;;;;;;5095291;28;20115;-69
2021/11/15 07:10:23;;;;;;;64.90;32.50;;;7.30;99.90;;;;;;5095358;28;20024;-69
2021/11/15 07:12:52;;;;;;;65.72;32.25;;;7.20;99.90;;;;;;5113629;28;20069;-69
2021/11/15 07:15:18;;;;;;;65.53;31.85;;;7.30;99.90;;;;;;5094791;28;20050;-69
2021/11/15 07:17:46;;;;;;;60.75;31.63;;;7.20;99.90;;;;;;5113488;28;20019;-68
2021/11/15 07:20:12;;;;;;;64.85;33.65;;;7.30;99.90;;;;;;5113440;28;20364;-69
2021/11/15 07:22:38;;;;;;;59.42;33.38;;;7.30;99.90;;;;;;5112852;28;20840;-68
2021/11/15 07:25:04;;;;;;;60.78;30.33;;;7.20;99.90;;;;;;5113449;28;20081;-69
2021/11/15 07:27:30;;;;;;;62.85;32.53;;;7.20;99.90;;;;;;5095174;28;20035;-69
2021/11/15 07:29:56;;;;;;;63.35;33.05;;;7.30;99.90;;;;;;5113486;28;20027;-69
2021/11/15 07:32:23;;;;;;;57.35;31.20;;;7.20;99.90;;;;;;5117833;28;20063;-68
2021/11/15 07:34:48;;;;;;;58.17;31.30;;;7.20;99.90;;;;;;5116869;28;20076;-68
2021/11/15 07:37:14;;;;;;;55.08;28.25;;;7.30;99.90;;;;;;5117387;28;20457;-69
2021/11/15 07:39:42;;;;;;;62.20;30.95;;;7.30;99.90;;;;;;5117270;28;20081;-68
2021/11/15 07:42:14;;;;;;;56.97;31.25;;;7.20;99.90;;;;;;5117538;28;20035;-68
2021/11/15 07:44:40;;;;;;;69.35;33.20;;;7.30;99.90;;;;;;5117297;28;20076;-68
2021/11/15 07:47:06;;;;;;;60.53;31.33;;;7.30;99.90;;;;;;5116613;28;20019;-68
2021/11/15 07:49:32;;;;;;;72.88;37.22;;;7.30;99.90;;;;;;5117166;28;20028;-68
2021/11/15 07:51:58;;;;;;;57.28;30.85;;;7.20;99.90;;;;;;5117369;28;20024;-68
2021/11/15 07:54:24;;;;;;;63.90;32.17;;;7.30;99.90;;;;;;5117076;28;20035;-68
2021/11/15 07:56:49;;;;;;;57.75;30.95;;;7.30;99.90;;;;;;5116561;28;20023;-68
2021/11/15 07:59:15;;;;;;;62.03;31.67;;;7.30;99.90;;;;;;5117146;28;20024;-69
2021/11/15 08:01:41;;;;;;;64.93;34.13;;;7.30;99.90;;;;;;5116894;28;20031;-69
2021/11/15 08:04:07;;;;;;;70.13;35.58;;;7.30;99.90;;;;;;5117187;28;20020;-69
2021/11/15 08:06:32;;;;;;;70.38;34.40;;;7.20;99.90;;;;;;5116344;28;20045;-69
2021/11/15 08:08:58;;;;;;;71.07;34.50;;;7.20;99.90;;;;;;5117014;28;20019;-69
2021/11/15 08:11:30;;;;;;;75.15;35.25;;;7.20;99.90;;;;;;5117317;28;20019;-69
2021/11/15 08:13:56;;;;;;;77.45;34.85;;;7.20;99.90;;;;;;5117008;28;20024;-69
2021/11/15 08:16:21;;;;;;;69.63;34.88;;;7.10;99.90;;;;;;5116157;28;20030;-69
2021/11/15 08:18:47;;;;;;;74.15;35.47;;;7.20;99.90;;;;;;5116544;28;20027;-69
2021/11/15 08:21:13;;;;;;;70.13;35.13;;;7.20;99.90;;;;;;5116968;28;20567;-69
2021/11/15 08:23:41;;;;;;;65.47;33.20;;;7.20;99.90;;;;;;5116771;28;20015;-68
2021/11/15 08:26:29;;;;;;;72.65;35.88;;;7.20;99.90;;;;;;5116166;28;20382;-68
2021/11/15 08:29:07;;;;;;;72.30;35.63;;;7.10;99.90;;;;;;5116544;28;20043;-69
2021/11/15 08:31:34;;;;;;;69.43;35.15;;;7.20;99.90;;;;;;5116620;28;20093;-68
2021/11/15 08:34:00;;;;;;;75.70;36.00;;;7.10;99.90;;;;;;5116241;28;20073;-68
2021/11/15 08:36:27;;;;;;;88.88;42.00;;;7.20;99.90;;;;;;5115526;28;20031;-68
2021/11/15 08:39:20;;;;;;;94.88;42.83;;;7.10;99.90;;;;;;5116472;28;20429;-68
2021/11/15 08:41:50;;;;;;;100.93;43.53;;;7.20;99.90;;;;;;5102348;28;20057;-69
2021/11/15 08:44:18;;;;;;;119.22;47.45;;;7.10;99.90;;;;;;5115905;28;20019;-68
2021/11/15 08:46:45;;;;;;;114.78;49.30;;;7.10;99.90;;;;;;5115439;28;20019;-68
2021/11/15 08:49:13;;;;;;;114.55;48.90;;;7.00;99.90;;;;;;5116288;28;20382;-68
2021/11/15 08:51:40;;;;;;;103.53;47.95;;;6.90;99.90;;;;;;5116361;28;20080;-68
2021/11/15 08:54:09;;;;;;;115.78;44.95;;;7.00;99.90;;;;;;5115939;28;20498;-68
2021/11/15 08:56:34;;;;;;;115.40;50.00;;;7.00;99.90;;;;;;5115316;28;20053;-69
2021/11/15 08:59:00;;;;;;;118.05;48.35;;;6.90;99.90;;;;;;5115831;28;20043;-68
2021/11/15 09:01:26;;;;;;;118.40;48.42;;;6.90;99.90;;;;;;5115843;28;20027;-68
2021/11/15 09:03:53;;;;;;;124.22;49.70;;;6.90;99.90;;;;;;5115727;28;20031;-68
2021/11/15 09:06:20;;;;;;;121.45;48.42;;;6.90;99.90;;;;;;5115624;28;20023;-68
2021/11/15 09:08:46;;;;;;;130.20;50.83;;;6.80;99.90;;;;;;5115860;28;20027;-69
2021/11/15 09:11:13;;;;;;;122.00;51.75;;;6.90;99.90;;;;;;5115035;28;20016;-68
2021/11/15 09:13:40;;;;;;;134.30;52.00;;;6.80;99.90;;;;;;5115854;28;20160;-68
2021/11/15 09:16:07;;;;;;;127.53;48.92;;;6.80;99.90;;;;;;5115640;28;20028;-69
2021/11/15 09:18:33;;;;;;;122.85;49.15;;;6.80;99.90;;;;;;5114851;28;20107;-69
2021/11/15 09:20:59;;;;;;;120.78;49.97;;;6.80;99.90;;;;;;5115208;28;20031;-69
2021/11/15 09:23:25;;;;;;;129.10;50.28;;;6.80;99.90;;;;;;5115364;28;20103;-70
2021/11/15 09:25:51;;;;;;;116.82;49.95;;;6.80;99.90;;;;;;5115490;28;20027;-69
2021/11/15 09:28:17;;;;;;;130.07;53.45;;;6.80;99.90;;;;;;5114738;28;20017;-68
2021/11/15 09:30:44;;;;;;;136.15;52.15;;;6.80;99.90;;;;;;5115256;28;20106;-69
2021/11/15 09:33:11;;;;;;;135.75;55.90;;;6.80;99.90;;;;;;5096530;28;20035;-68
2021/11/15 09:35:37;;;;;;;129.35;49.90;;;6.70;99.90;;;;;;5114960;28;20028;-68
2021/11/15 09:38:03;;;;;;;142.30;54.28;;;6.70;99.90;;;;;;5114914;28;20555;-69
2021/11/15 09:40:29;;;;;;;121.88;50.38;;;6.70;99.90;;;;;;5115063;28;20024;-68
2021/11/15 09:42:57;;;;;;;126.03;53.25;;;6.80;99.90;;;;;;5114617;28;20024;-69
2021/11/15 09:45:24;;;;;;;122.80;49.67;;;6.80;99.90;;;;;;5114908;28;20530;-68
2021/11/15 09:47:52;;;;;;;136.93;52.10;;;6.70;99.90;;;;;;5114832;28;20028;-68
2021/11/15 09:50:18;;;;;;;126.70;49.28;;;6.70;99.90;;;;;;5115018;28;20031;-68
2021/11/15 09:52:44;;;;;;;138.02;55.40;;;6.80;99.90;;;;;;5114961;28;20024;-68
2021/11/15 09:55:10;;;;;;;132.18;52.42;;;6.80;99.90;;;;;;5113923;28;20023;-68
2021/11/15 09:57:40;;;;;;;139.23;54.92;;;6.70;99.90;;;;;;5114582;28;20020;-68
2021/11/15 10:00:10;;;;;;;129.88;51.65;;;6.70;99.90;;;;;;5114871;28;20506;-68
2021/11/15 10:02:37;;;;;;;140.30;55.53;;;6.70;99.90;;;;;;5115403;28;20046;-68
2021/11/15 10:05:07;;;;;;;124.82;53.05;;;6.70;99.90;;;;;;5096337;28;20173;-69
2021/11/15 10:07:39;;;;;;;134.38;55.28;;;6.70;99.90;;;;;;5114044;28;20016;-68
2021/11/15 10:10:30;;;;;;;145.32;56.03;;;6.70;99.90;;;;;;5114675;28;20028;-68
2021/11/15 10:13:31;;;;;;;133.52;54.97;;;6.60;99.90;;;;;;5114436;28;20023;-68
2021/11/15 10:16:14;;;;;;;139.68;57.00;;;6.70;99.90;;;;;;5114592;28;20386;-68
2021/11/15 10:18:45;;;;;;;125.10;52.58;;;6.70;99.90;;;;;;5113804;28;20030;-68
2021/11/15 10:21:45;;;;;;;141.32;55.40;;;6.70;99.90;;;;;;5114477;28;20395;-69
2021/11/15 10:24:30;;;;;;;145.82;55.20;;;6.70;99.90;;;;;;5113336;28;20114;-68
2021/11/15 10:27:00;;;;;;;145.32;58.03;;;6.70;99.90;;;;;;5114191;28;20015;-68
2021/11/15 10:29:35;;;;;;;131.88;54.53;;;6.70;99.90;;;;;;5113575;28;20020;-68
2021/11/15 10:32:04;;;;;;;126.18;52.90;;;6.60;99.90;;;;;;5114651;28;20062;-68
2021/11/15 10:34:42;;;;;;;134.23;53.63;;;6.70;99.90;;;;;;5114072;28;20020;-68
2021/11/15 10:37:15;;;;;;;134.63;53.33;;;6.70;99.90;;;;;;5113462;28;20085;-68
2021/11/15 10:39:45;;;;;;;126.07;52.55;;;6.70;99.90;;;;;;5114569;28;20028;-68
2021/11/15 10:42:21;;;;;;;124.72;51.42;;;6.60;99.90;;;;;;5113920;28;20027;-69
2021/11/15 10:44:54;;;;;;;127.70;50.33;;;6.60;99.90;;;;;;5114262;28;20023;-68
2021/11/15 10:47:30;;;;;;;114.30;50.83;;;6.60;99.90;;;;;;5113949;28;20027;-69
2021/11/15 10:50:27;;;;;;;115.97;50.30;;;6.60;99.90;;;;;;5113351;28;20030;-68
2021/11/15 10:53:10;;;;;;;116.43;49.15;;;6.50;99.90;;;;;;5114056;28;20023;-68
2021/11/15 10:55:46;;;;;;;121.55;50.50;;;6.60;99.90;;;;;;5114019;28;20022;-69
2021/11/15 10:58:19;;;;;;;119.28;50.10;;;6.60;99.90;;;;;;5113808;28;20059;-68
2021/11/15 11:00:52;;;;;;;115.28;52.00;;;6.60;99.90;;;;;;5113916;28;20023;-68
2021/11/15 11:03:23;;;;;;;115.88;49.08;;;6.60;99.90;;;;;;5113197;28;20104;-68
2021/11/15 11:05:53;;;;;;;114.43;51.88;;;6.60;99.90;;;;;;5113152;28;20026;-68
2021/11/15 11:08:27;;;;;;;123.03;53.60;;;6.60;99.90;;;;;;5113875;28;20020;-68
2021/11/15 11:11:09;;;;;;;116.63;51.15;;;6.60;99.90;;;;;;5113581;28;20027;-68
2021/11/15 11:13:57;;;;;;;111.18;49.47;;;6.60;99.90;;;;;;5113586;28;20059;-68
2021/11/15 11:16:47;;;;;;;113.18;48.70;;;6.60;99.90;;;;;;5112918;28;20023;-68
2021/11/15 11:27:09;;;;;;;108.55;48.97;;;6.60;99.90;;;;;;5113104;28;20031;-68
2021/11/15 11:29:38;;;;;;;117.40;50.13;;;6.70;99.90;;;;;;5111673;28;20016;-67
2021/11/15 11:32:09;;;;;;;116.80;51.92;;;6.60;99.90;;;;;;5099461;28;20029;-68
2021/11/15 11:34:35;;;;;;;114.85;49.30;;;6.60;99.90;;;;;;5103496;28;20019;-68
2021/11/15 11:37:04;;;;;;;118.78;51.22;;;6.70;99.90;;;;;;5098554;28;20032;-68
2021/11/15 11:39:31;;;;;;;111.85;48.97;;;6.70;99.90;;;;;;5099181;28;20035;-69
2021/11/15 11:41:59;;;;;;;118.75;52.10;;;6.70;99.90;;;;;;5103087;28;20081;-68
2021/11/15 11:44:26;;;;;;;113.97;49.33;;;6.70;99.90;;;;;;5102180;28;20012;-69
2021/11/15 11:46:52;;;;;;;118.20;48.60;;;6.70;99.90;;;;;;5102984;28;20015;-69
2021/11/15 11:49:24;;;;;;;115.65;50.40;;;6.80;99.90;;;;;;5100991;28;20034;-70
2021/11/15 11:51:53;;;;;;;115.38;51.55;;;6.80;99.90;;;;;;5099031;28;20036;-69
2021/11/15 11:54:20;;;;;;;114.30;52.47;;;6.80;99.90;;;;;;5101095;28;20027;-69
2021/11/15 11:57:05;;;;;;;110.82;50.15;;;6.70;99.90;;;;;;5101651;28;20119;-69
2021/11/15 11:59:34;;;;;;;103.97;47.22;;;6.70;99.90;;;;;;5077237;28;20066;-69
2021/11/15 12:02:13;;;;;;;115.68;50.70;;;6.70;99.90;;;;;;5104204;28;20020;-69
2021/11/15 12:04:51;;;;;;;113.55;48.53;;;6.70;99.90;;;;;;5103913;28;20382;-69
2021/11/15 12:07:33;;;;;;;114.55;50.10;;;6.60;99.90;;;;;;5100094;28;20073;-68
2021/11/15 12:10:04;;;;;;;117.95;49.42;;;6.60;99.90;;;;;;5098908;28;20077;-69
2021/11/15 12:12:52;;;;;;;112.82;50.15;;;6.60;99.90;;;;;;5100014;28;20032;-68
2021/11/15 12:15:34;;;;;;;113.78;48.83;;;6.70;99.90;;;;;;5101186;28;20371;-69
2021/11/15 12:18:24;;;;;;;120.57;51.05;;;6.70;99.90;;;;;;5104437;28;20078;-68
2021/11/15 12:21:02;;;;;;;116.90;48.10;;;6.70;99.90;;;;;;5096228;28;20077;-69
2021/11/15 12:23:39;;;;;;;106.00;45.78;;;6.70;99.90;;;;;;5095559;28;20103;-68
2021/11/15 12:26:07;;;;;;;113.40;48.97;;;6.70;99.90;;;;;;5096175;28;20048;-69
2021/11/15 12:28:34;;;;;;;118.30;51.72;;;6.80;99.90;;;;;;5096029;28;20047;-67
2021/11/15 12:31:01;;;;;;;107.53;47.63;;;6.80;99.90;;;;;;5096087;28;20028;-68
2021/11/15 12:33:29;;;;;;;112.22;47.90;;;6.80;99.90;;;;;;5095931;28;20487;-68
2021/11/15 12:36:12;;;;;;;117.35;49.03;;;6.80;99.90;;;;;;5095149;28;20064;-68
2021/11/15 12:38:42;;;;;;;112.70;48.63;;;6.90;99.90;;;;;;5095811;28;20024;-68
2021/11/15 12:41:20;;;;;;;125.90;52.40;;;6.90;99.90;;;;;;5096024;28;20048;-68
2021/11/15 12:44:04;;;;;;;107.78;47.75;;;6.90;99.90;;;;;;5095151;28;20093;-68
2021/11/15 12:46:51;;;;;;;104.40;46.95;;;6.90;99.90;;;;;;5095456;28;20487;-68